sensor_id;sensor_type;location;lat;lon;timestamp;P1;durP1;ratioP1;P2;durP2;ratioP2
2934;SDS011;2462;51.456;7.248;2022-11-04T00:01:47;3.30;;;1.20;;
2934;SDS011;2462;51.456;7.248;2022-11-04T00:04:13;2.72;;;1.30;;
2934;SDS011;2462;51.456;7.248;2022-11-04T00:06:40;1.40;;;1.00;;
2934;SDS011;2462;51.456;7.248;2022-11-04T00:09:07;1.30;;;0.93;;
2934;SDS011;2462;51.456;7.248;2022-11-04T00:11:34;1.60;;;1.27;;
2934;SDS011;2462;51.456;7.248;2022-11-04T00:14:19;2.00;;;1.20;;
2934;SDS011;2462;51.456;7.248;2022-11-04T00:16:45;2.20;;;1.25;;
2934;SDS011;2462;51.456;7.248;2022-11-04T00:19:29;1.30;;;1.10;;
2934;SDS011;2462;51.456;7.248;2022-11-04T00:22:15;1.60;;;1.23;;
2934;SDS011;2462;51.456;7.248;2022-11-04T00:24:59;1.98;;;1.20;;
2934;SDS011;2462;51.456;7.248;2022-11-04T00:27:44;1.60;;;1.38;;
2934;SDS011;2462;51.456;7.248;2022-11-04T00:30:28;2.60;;;1.13;;
2934;SDS011;2462;51.456;7.248;2022-11-04T00:32:53;2.50;;;1.40;;
2934;SDS011;2462;51.456;7.248;2022-11-04T00:35:37;2.10;;;1.50;;
2934;SDS011;2462;51.456;7.248;2022-11-04T00:38:03;2.13;;;1.08;;
2934;SDS011;2462;51.456;7.248;2022-11-04T00:40:28;2.50;;;1.27;;
2934;SDS011;2462;51.456;7.248;2022-11-04T00:42:54;2.60;;;1.20;;
2934;SDS011;2462;51.456;7.248;2022-11-04T00:45:19;1.80;;;1.00;;
2934;SDS011;2462;51.456;7.248;2022-11-04T00:47:45;1.25;;;1.10;;
2934;SDS011;2462;51.456;7.248;2022-11-04T00:50:10;1.63;;;1.20;;
2934;SDS011;2462;51.456;7.248;2022-11-04T00:52:36;1.90;;;1.10;;
2934;SDS011;2462;51.456;7.248;2022-11-04T00:55:02;1.90;;;1.20;;
2934;SDS011;2462;51.456;7.248;2022-11-04T00:57:27;2.25;;;1.42;;
2934;SDS011;2462;51.456;7.248;2022-11-04T00:59:53;1.60;;;1.30;;
2934;SDS011;2462;51.456;7.248;2022-11-04T01:02:18;1.57;;;1.10;;
2934;SDS011;2462;51.456;7.248;2022-11-04T01:04:45;1.70;;;1.20;;
2934;SDS011;2462;51.456;7.248;2022-11-04T01:07:11;2.70;;;1.27;;
2934;SDS011;2462;51.456;7.248;2022-11-04T01:09:36;1.50;;;1.35;;
2934;SDS011;2462;51.456;7.248;2022-11-04T01:12:02;2.10;;;1.40;;
2934;SDS011;2462;51.456;7.248;2022-11-04T01:14:27;1.75;;;1.30;;
2934;SDS011;2462;51.456;7.248;2022-11-04T01:16:53;1.50;;;1.40;;
2934;SDS011;2462;51.456;7.248;2022-11-04T01:19:18;2.30;;;1.60;;
2934;SDS011;2462;51.456;7.248;2022-11-04T01:21:44;3.27;;;1.37;;
2934;SDS011;2462;51.456;7.248;2022-11-04T01:24:10;1.50;;;1.40;;
2934;SDS011;2462;51.456;7.248;2022-11-04T01:26:36;4.38;;;1.80;;
2934;SDS011;2462;51.456;7.248;2022-11-04T01:29:01;2.00;;;1.47;;
2934;SDS011;2462;51.456;7.248;2022-11-04T01:31:28;2.80;;;1.80;;
2934;SDS011;2462;51.456;7.248;2022-11-04T01:33:55;2.80;;;1.60;;
2934;SDS011;2462;51.456;7.248;2022-11-04T01:36:22;2.40;;;1.80;;
2934;SDS011;2462;51.456;7.248;2022-11-04T01:38:48;2.08;;;1.77;;
2934;SDS011;2462;51.456;7.248;2022-11-04T01:41:16;2.00;;;1.80;;
2934;SDS011;2462;51.456;7.248;2022-11-04T01:43:49;2.70;;;1.90;;
2934;SDS011;2462;51.456;7.248;2022-11-04T01:46:41;2.20;;;1.90;;
2934;SDS011;2462;51.456;7.248;2022-11-04T01:49:44;2.00;;;1.60;;
2934;SDS011;2462;51.456;7.248;2022-11-04T01:52:06;3.25;;;2.03;;
2934;SDS011;2462;51.456;7.248;2022-11-04T01:54:35;3.63;;;1.80;;
2934;SDS011;2462;51.456;7.248;2022-11-04T01:57:02;2.17;;;1.85;;
2934;SDS011;2462;51.456;7.248;2022-11-04T01:59:32;2.90;;;2.10;;
2934;SDS011;2462;51.456;7.248;2022-11-04T02:02:01;3.70;;;1.95;;
2934;SDS011;2462;51.456;7.248;2022-11-04T02:04:27;3.83;;;2.23;;
2934;SDS011;2462;51.456;7.248;2022-11-04T02:07:04;2.65;;;2.40;;
2934;SDS011;2462;51.456;7.248;2022-11-04T02:09:32;3.50;;;2.30;;
2934;SDS011;2462;51.456;7.248;2022-11-04T02:11:59;3.58;;;2.30;;
2934;SDS011;2462;51.456;7.248;2022-11-04T02:14:43;5.68;;;2.30;;
2934;SDS011;2462;51.456;7.248;2022-11-04T02:31:34;5.30;;;2.50;;
2934;SDS011;2462;51.456;7.248;2022-11-04T02:34:17;3.65;;;2.30;;
2934;SDS011;2462;51.456;7.248;2022-11-04T02:36:48;3.40;;;2.40;;
2934;SDS011;2462;51.456;7.248;2022-11-04T02:39:22;3.53;;;2.60;;
2934;SDS011;2462;51.456;7.248;2022-11-04T02:44:45;3.60;;;2.20;;
2934;SDS011;2462;51.456;7.248;2022-11-04T02:47:16;6.40;;;2.60;;
2934;SDS011;2462;51.456;7.248;2022-11-04T02:52:11;4.30;;;2.57;;
2934;SDS011;2462;51.456;7.248;2022-11-04T02:57:26;6.03;;;1.80;;
2934;SDS011;2462;51.456;7.248;2022-11-04T02:59:56;2.70;;;1.80;;
2934;SDS011;2462;51.456;7.248;2022-11-04T03:02:29;3.60;;;1.80;;
2934;SDS011;2462;51.456;7.248;2022-11-04T03:05:04;4.13;;;2.10;;
2934;SDS011;2462;51.456;7.248;2022-11-04T03:07:32;5.93;;;1.90;;
2934;SDS011;2462;51.456;7.248;2022-11-04T03:10:04;5.03;;;2.30;;
2934;SDS011;2462;51.456;7.248;2022-11-04T03:12:43;6.63;;;2.50;;
2934;SDS011;2462;51.456;7.248;2022-11-04T03:15:14;6.05;;;2.50;;
2934;SDS011;2462;51.456;7.248;2022-11-04T03:17:57;3.70;;;2.30;;
2934;SDS011;2462;51.456;7.248;2022-11-04T03:20:30;3.78;;;1.98;;
2934;SDS011;2462;51.456;7.248;2022-11-04T03:22:55;6.80;;;1.90;;
2934;SDS011;2462;51.456;7.248;2022-11-04T03:25:31;3.97;;;1.80;;
2934;SDS011;2462;51.456;7.248;2022-11-04T03:28:06;2.50;;;1.65;;
2934;SDS011;2462;51.456;7.248;2022-11-04T03:31:01;6.30;;;2.10;;
2934;SDS011;2462;51.456;7.248;2022-11-04T03:36:05;4.80;;;1.80;;
2934;SDS011;2462;51.456;7.248;2022-11-04T03:38:33;5.53;;;1.60;;
2934;SDS011;2462;51.456;7.248;2022-11-04T03:40:59;6.20;;;1.80;;
2934;SDS011;2462;51.456;7.248;2022-11-04T03:43:28;3.60;;;1.70;;
2934;SDS011;2462;51.456;7.248;2022-11-04T03:45:55;6.57;;;1.60;;
2934;SDS011;2462;51.456;7.248;2022-11-04T03:48:21;5.33;;;1.80;;
2934;SDS011;2462;51.456;7.248;2022-11-04T03:50:48;6.57;;;1.83;;
2934;SDS011;2462;51.456;7.248;2022-11-04T03:53:16;4.87;;;1.90;;
2934;SDS011;2462;51.456;7.248;2022-11-04T03:56:08;3.92;;;1.58;;
2934;SDS011;2462;51.456;7.248;2022-11-04T03:58:51;5.45;;;2.10;;
2934;SDS011;2462;51.456;7.248;2022-11-04T04:01:43;6.10;;;2.35;;
2934;SDS011;2462;51.456;7.248;2022-11-04T04:09:54;5.60;;;2.00;;
2934;SDS011;2462;51.456;7.248;2022-11-04T04:13:01;3.42;;;1.52;;
2934;SDS011;2462;51.456;7.248;2022-11-04T04:15:42;4.60;;;1.55;;
2934;SDS011;2462;51.456;7.248;2022-11-04T04:18:34;5.95;;;1.80;;
2934;SDS011;2462;51.456;7.248;2022-11-04T04:21:13;7.33;;;1.80;;
2934;SDS011;2462;51.456;7.248;2022-11-04T04:23:42;6.10;;;1.80;;
2934;SDS011;2462;51.456;7.248;2022-11-04T04:26:28;7.25;;;1.98;;
2934;SDS011;2462;51.456;7.248;2022-11-04T04:29:16;3.35;;;1.38;;
2934;SDS011;2462;51.456;7.248;2022-11-04T04:31:43;4.90;;;1.52;;
2934;SDS011;2462;51.456;7.248;2022-11-04T04:34:16;7.07;;;1.80;;
2934;SDS011;2462;51.456;7.248;2022-11-04T04:36:47;5.35;;;1.70;;
2934;SDS011;2462;51.456;7.248;2022-11-04T04:39:17;7.70;;;2.20;;
2934;SDS011;2462;51.456;7.248;2022-11-04T04:42:05;7.40;;;2.20;;
2934;SDS011;2462;51.456;7.248;2022-11-04T04:44:50;6.18;;;2.38;;
2934;SDS011;2462;51.456;7.248;2022-11-04T04:47:26;7.00;;;2.07;;
2934;SDS011;2462;51.456;7.248;2022-11-04T04:50:03;5.70;;;2.13;;
2934;SDS011;2462;51.456;7.248;2022-11-04T04:52:33;5.32;;;1.90;;
2934;SDS011;2462;51.456;7.248;2022-11-04T04:55:02;7.57;;;2.40;;
2934;SDS011;2462;51.456;7.248;2022-11-04T04:57:28;7.57;;;1.90;;
2934;SDS011;2462;51.456;7.248;2022-11-04T04:59:53;7.73;;;2.23;;
2934;SDS011;2462;51.456;7.248;2022-11-04T05:02:19;3.83;;;1.80;;
2934;SDS011;2462;51.456;7.248;2022-11-04T05:04:45;5.10;;;1.80;;
2934;SDS011;2462;51.456;7.248;2022-11-04T05:07:10;5.13;;;1.60;;
2934;SDS011;2462;51.456;7.248;2022-11-04T05:09:36;4.55;;;1.65;;
2934;SDS011;2462;51.456;7.248;2022-11-04T05:12:02;8.23;;;2.60;;
2934;SDS011;2462;51.456;7.248;2022-11-04T05:14:28;8.70;;;1.90;;
2934;SDS011;2462;51.456;7.248;2022-11-04T05:16:54;4.95;;;1.88;;
2934;SDS011;2462;51.456;7.248;2022-11-04T05:19:20;5.27;;;1.70;;
2934;SDS011;2462;51.456;7.248;2022-11-04T05:21:45;7.57;;;1.60;;
2934;SDS011;2462;51.456;7.248;2022-11-04T05:24:11;5.87;;;1.70;;
2934;SDS011;2462;51.456;7.248;2022-11-04T05:26:36;5.22;;;1.50;;
2934;SDS011;2462;51.456;7.248;2022-11-04T05:29:02;6.95;;;1.80;;
2934;SDS011;2462;51.456;7.248;2022-11-04T05:31:27;7.60;;;2.00;;
2934;SDS011;2462;51.456;7.248;2022-11-04T05:33:54;6.93;;;1.80;;
2934;SDS011;2462;51.456;7.248;2022-11-04T05:36:20;7.30;;;1.70;;
2934;SDS011;2462;51.456;7.248;2022-11-04T05:38:49;4.22;;;1.50;;
2934;SDS011;2462;51.456;7.248;2022-11-04T05:41:15;4.68;;;1.30;;
2934;SDS011;2462;51.456;7.248;2022-11-04T05:43:50;3.40;;;1.27;;
2934;SDS011;2462;51.456;7.248;2022-11-04T05:46:17;7.40;;;1.87;;
2934;SDS011;2462;51.456;7.248;2022-11-04T05:48:42;5.10;;;1.50;;
2934;SDS011;2462;51.456;7.248;2022-11-04T05:51:11;5.17;;;1.70;;
2934;SDS011;2462;51.456;7.248;2022-11-04T05:53:38;2.85;;;1.40;;
2934;SDS011;2462;51.456;7.248;2022-11-04T05:56:03;6.00;;;1.90;;
2934;SDS011;2462;51.456;7.248;2022-11-04T05:58:29;5.35;;;2.20;;
2934;SDS011;2462;51.456;7.248;2022-11-04T06:01:09;4.40;;;1.67;;
2934;SDS011;2462;51.456;7.248;2022-11-04T06:03:46;6.70;;;2.03;;
2934;SDS011;2462;51.456;7.248;2022-11-04T06:06:11;4.82;;;1.40;;
2934;SDS011;2462;51.456;7.248;2022-11-04T06:08:37;4.20;;;1.70;;
2934;SDS011;2462;51.456;7.248;2022-11-04T06:11:02;8.07;;;1.80;;
2934;SDS011;2462;51.456;7.248;2022-11-04T06:13:29;4.68;;;1.95;;
2934;SDS011;2462;51.456;7.248;2022-11-04T06:15:55;3.88;;;1.55;;
2934;SDS011;2462;51.456;7.248;2022-11-04T06:18:20;4.83;;;1.60;;
2934;SDS011;2462;51.456;7.248;2022-11-04T06:20:46;6.73;;;1.93;;
2934;SDS011;2462;51.456;7.248;2022-11-04T06:23:11;7.63;;;1.90;;
2934;SDS011;2462;51.456;7.248;2022-11-04T06:25:37;4.47;;;1.80;;
2934;SDS011;2462;51.456;7.248;2022-11-04T06:28:03;5.35;;;1.70;;
2934;SDS011;2462;51.456;7.248;2022-11-04T06:30:28;6.22;;;1.83;;
2934;SDS011;2462;51.456;7.248;2022-11-04T06:32:54;5.10;;;1.40;;
2934;SDS011;2462;51.456;7.248;2022-11-04T06:35:19;3.53;;;1.40;;
2934;SDS011;2462;51.456;7.248;2022-11-04T06:37:45;6.63;;;1.70;;
2934;SDS011;2462;51.456;7.248;2022-11-04T06:40:10;4.38;;;1.73;;
2934;SDS011;2462;51.456;7.248;2022-11-04T06:42:36;4.45;;;1.70;;
2934;SDS011;2462;51.456;7.248;2022-11-04T06:45:02;4.95;;;1.38;;
2934;SDS011;2462;51.456;7.248;2022-11-04T06:47:27;5.43;;;1.75;;
2934;SDS011;2462;51.456;7.248;2022-11-04T06:49:53;4.55;;;2.00;;
2934;SDS011;2462;51.456;7.248;2022-11-04T06:52:18;7.15;;;2.28;;
2934;SDS011;2462;51.456;7.248;2022-11-04T06:54:44;6.40;;;2.77;;
2934;SDS011;2462;51.456;7.248;2022-11-04T06:57:11;4.65;;;1.80;;
2934;SDS011;2462;51.456;7.248;2022-11-04T06:59:37;7.67;;;2.13;;
2934;SDS011;2462;51.456;7.248;2022-11-04T07:02:03;5.82;;;2.10;;
2934;SDS011;2462;51.456;7.248;2022-11-04T07:04:29;4.72;;;1.50;;
2934;SDS011;2462;51.456;7.248;2022-11-04T07:06:55;7.10;;;2.40;;
2934;SDS011;2462;51.456;7.248;2022-11-04T07:09:20;4.43;;;1.70;;
2934;SDS011;2462;51.456;7.248;2022-11-04T07:11:46;4.00;;;1.60;;
2934;SDS011;2462;51.456;7.248;2022-11-04T07:14:12;4.50;;;1.70;;
2934;SDS011;2462;51.456;7.248;2022-11-04T07:16:37;7.80;;;2.05;;
2934;SDS011;2462;51.456;7.248;2022-11-04T07:19:03;5.03;;;2.00;;
2934;SDS011;2462;51.456;7.248;2022-11-04T07:21:29;4.30;;;1.80;;
2934;SDS011;2462;51.456;7.248;2022-11-04T07:23:55;4.57;;;1.77;;
2934;SDS011;2462;51.456;7.248;2022-11-04T07:26:21;5.80;;;1.80;;
2934;SDS011;2462;51.456;7.248;2022-11-04T07:28:47;4.43;;;1.70;;
2934;SDS011;2462;51.456;7.248;2022-11-04T07:31:13;5.10;;;1.97;;
2934;SDS011;2462;51.456;7.248;2022-11-04T07:33:39;4.97;;;1.75;;
2934;SDS011;2462;51.456;7.248;2022-11-04T07:36:05;8.10;;;2.20;;
2934;SDS011;2462;51.456;7.248;2022-11-04T07:38:33;4.65;;;1.77;;
2934;SDS011;2462;51.456;7.248;2022-11-04T07:40:59;3.63;;;1.70;;
2934;SDS011;2462;51.456;7.248;2022-11-04T07:43:26;3.90;;;1.67;;
2934;SDS011;2462;51.456;7.248;2022-11-04T07:46:02;7.63;;;2.60;;
2934;SDS011;2462;51.456;7.248;2022-11-04T07:48:29;5.50;;;2.30;;
2934;SDS011;2462;51.456;7.248;2022-11-04T07:50:56;4.87;;;2.03;;
2934;SDS011;2462;51.456;7.248;2022-11-04T07:53:23;5.57;;;1.95;;
2934;SDS011;2462;51.456;7.248;2022-11-04T07:55:49;4.97;;;1.70;;
2934;SDS011;2462;51.456;7.248;2022-11-04T07:58:15;4.82;;;1.90;;
2934;SDS011;2462;51.456;7.248;2022-11-04T08:00:42;6.80;;;2.10;;
2934;SDS011;2462;51.456;7.248;2022-11-04T08:03:07;4.80;;;2.40;;
2934;SDS011;2462;51.456;7.248;2022-11-04T08:05:33;4.57;;;2.20;;
2934;SDS011;2462;51.456;7.248;2022-11-04T08:07:59;5.50;;;2.28;;
2934;SDS011;2462;51.456;7.248;2022-11-04T08:10:25;7.93;;;2.70;;
2934;SDS011;2462;51.456;7.248;2022-11-04T08:12:51;3.67;;;2.00;;
2934;SDS011;2462;51.456;7.248;2022-11-04T08:15:16;6.20;;;2.47;;
2934;SDS011;2462;51.456;7.248;2022-11-04T08:17:42;4.90;;;2.20;;
2934;SDS011;2462;51.456;7.248;2022-11-04T08:20:07;5.17;;;2.20;;
2934;SDS011;2462;51.456;7.248;2022-11-04T08:22:33;5.83;;;2.40;;
2934;SDS011;2462;51.456;7.248;2022-11-04T08:24:59;5.90;;;2.03;;
2934;SDS011;2462;51.456;7.248;2022-11-04T08:27:24;4.70;;;2.10;;
2934;SDS011;2462;51.456;7.248;2022-11-04T08:29:50;6.50;;;2.30;;
2934;SDS011;2462;51.456;7.248;2022-11-04T08:32:16;4.60;;;2.00;;
2934;SDS011;2462;51.456;7.248;2022-11-04T08:34:42;6.07;;;2.30;;
2934;SDS011;2462;51.456;7.248;2022-11-04T08:37:08;6.43;;;1.98;;
2934;SDS011;2462;51.456;7.248;2022-11-04T08:39:36;6.22;;;2.35;;
2934;SDS011;2462;51.456;7.248;2022-11-04T08:42:02;6.93;;;2.37;;
2934;SDS011;2462;51.456;7.248;2022-11-04T08:44:28;7.10;;;2.50;;
2934;SDS011;2462;51.456;7.248;2022-11-04T08:46:53;6.27;;;2.40;;
2934;SDS011;2462;51.456;7.248;2022-11-04T08:49:19;4.97;;;1.80;;
2934;SDS011;2462;51.456;7.248;2022-11-04T08:51:44;4.67;;;2.07;;
2934;SDS011;2462;51.456;7.248;2022-11-04T08:54:20;4.72;;;2.00;;
2934;SDS011;2462;51.456;7.248;2022-11-04T08:56:45;5.50;;;1.80;;
2934;SDS011;2462;51.456;7.248;2022-11-04T08:59:11;6.30;;;2.20;;
2934;SDS011;2462;51.456;7.248;2022-11-04T09:01:36;6.77;;;2.10;;
2934;SDS011;2462;51.456;7.248;2022-11-04T09:04:02;7.87;;;2.40;;
2934;SDS011;2462;51.456;7.248;2022-11-04T09:06:30;5.22;;;1.92;;
2934;SDS011;2462;51.456;7.248;2022-11-04T09:09:00;7.30;;;2.17;;
2934;SDS011;2462;51.456;7.248;2022-11-04T09:11:29;5.95;;;2.25;;
2934;SDS011;2462;51.456;7.248;2022-11-04T09:13:57;4.35;;;1.83;;
2934;SDS011;2462;51.456;7.248;2022-11-04T09:16:25;10.80;;;2.60;;
2934;SDS011;2462;51.456;7.248;2022-11-04T09:18:51;7.65;;;2.10;;
2934;SDS011;2462;51.456;7.248;2022-11-04T09:21:17;6.40;;;1.70;;
2934;SDS011;2462;51.456;7.248;2022-11-04T09:23:42;4.35;;;2.05;;
2934;SDS011;2462;51.456;7.248;2022-11-04T09:26:11;7.30;;;2.00;;
2934;SDS011;2462;51.456;7.248;2022-11-04T09:28:38;5.72;;;2.08;;
2934;SDS011;2462;51.456;7.248;2022-11-04T09:31:05;5.00;;;2.00;;
2934;SDS011;2462;51.456;7.248;2022-11-04T09:33:32;5.07;;;1.80;;
2934;SDS011;2462;51.456;7.248;2022-11-04T09:35:57;7.20;;;2.10;;
2934;SDS011;2462;51.456;7.248;2022-11-04T09:38:24;6.23;;;1.93;;
2934;SDS011;2462;51.456;7.248;2022-11-04T09:40:50;6.68;;;2.08;;
2934;SDS011;2462;51.456;7.248;2022-11-04T09:46:09;6.05;;;1.85;;
2934;SDS011;2462;51.456;7.248;2022-11-04T09:48:46;5.78;;;2.25;;
2934;SDS011;2462;51.456;7.248;2022-11-04T09:51:15;5.00;;;1.70;;
2934;SDS011;2462;51.456;7.248;2022-11-04T09:56:20;5.28;;;1.80;;
2934;SDS011;2462;51.456;7.248;2022-11-04T09:58:47;6.00;;;1.80;;
2934;SDS011;2462;51.456;7.248;2022-11-04T10:03:46;5.57;;;1.90;;
2934;SDS011;2462;51.456;7.248;2022-11-04T10:06:32;5.68;;;2.15;;
2934;SDS011;2462;51.456;7.248;2022-11-04T10:09:12;5.35;;;1.60;;
2934;SDS011;2462;51.456;7.248;2022-11-04T10:11:56;4.68;;;1.55;;
2934;SDS011;2462;51.456;7.248;2022-11-04T10:15:12;6.88;;;1.80;;
2934;SDS011;2462;51.456;7.248;2022-11-04T10:17:46;7.20;;;1.98;;
2934;SDS011;2462;51.456;7.248;2022-11-04T10:23:01;5.72;;;1.70;;
2934;SDS011;2462;51.456;7.248;2022-11-04T10:25:48;3.87;;;1.77;;
2934;SDS011;2462;51.456;7.248;2022-11-04T10:28:27;5.53;;;1.83;;
2934;SDS011;2462;51.456;7.248;2022-11-04T10:30:56;3.50;;;1.60;;
2934;SDS011;2462;51.456;7.248;2022-11-04T10:33:29;6.68;;;1.80;;
2934;SDS011;2462;51.456;7.248;2022-11-04T10:36:05;5.25;;;1.98;;
2934;SDS011;2462;51.456;7.248;2022-11-04T10:38:37;6.00;;;1.80;;
2934;SDS011;2462;51.456;7.248;2022-11-04T10:44:03;6.50;;;2.00;;
2934;SDS011;2462;51.456;7.248;2022-11-04T10:49:28;4.70;;;1.80;;
2934;SDS011;2462;51.456;7.248;2022-11-04T10:52:01;4.93;;;1.65;;
2934;SDS011;2462;51.456;7.248;2022-11-04T10:54:26;5.80;;;1.70;;
2934;SDS011;2462;51.456;7.248;2022-11-04T10:56:58;4.45;;;2.03;;
2934;SDS011;2462;51.456;7.248;2022-11-04T10:59:33;5.97;;;2.00;;
2934;SDS011;2462;51.456;7.248;2022-11-04T11:02:16;5.03;;;1.70;;
2934;SDS011;2462;51.456;7.248;2022-11-04T11:04:41;5.15;;;1.60;;
2934;SDS011;2462;51.456;7.248;2022-11-04T11:07:12;5.40;;;1.90;;
2934;SDS011;2462;51.456;7.248;2022-11-04T11:14:37;5.68;;;1.90;;
2934;SDS011;2462;51.456;7.248;2022-11-04T11:19:54;6.15;;;2.10;;
2934;SDS011;2462;51.456;7.248;2022-11-04T11:25:21;5.30;;;2.05;;
2934;SDS011;2462;51.456;7.248;2022-11-04T11:28:09;4.57;;;2.00;;
2934;SDS011;2462;51.456;7.248;2022-11-04T11:33:27;4.75;;;1.92;;
2934;SDS011;2462;51.456;7.248;2022-11-04T11:35:55;8.43;;;2.05;;
2934;SDS011;2462;51.456;7.248;2022-11-04T11:38:26;4.90;;;1.77;;
2934;SDS011;2462;51.456;7.248;2022-11-04T11:41:07;3.63;;;1.60;;
2934;SDS011;2462;51.456;7.248;2022-11-04T11:43:39;4.40;;;1.80;;
2934;SDS011;2462;51.456;7.248;2022-11-04T11:46:09;5.78;;;1.92;;
2934;SDS011;2462;51.456;7.248;2022-11-04T11:51:11;5.40;;;2.20;;
2934;SDS011;2462;51.456;7.248;2022-11-04T11:53:38;7.17;;;2.20;;
2934;SDS011;2462;51.456;7.248;2022-11-04T11:56:25;5.78;;;2.10;;
2934;SDS011;2462;51.456;7.248;2022-11-04T11:59:00;4.07;;;1.87;;
2934;SDS011;2462;51.456;7.248;2022-11-04T12:01:38;6.00;;;1.70;;
2934;SDS011;2462;51.456;7.248;2022-11-04T12:04:06;5.25;;;1.60;;
2934;SDS011;2462;51.456;7.248;2022-11-04T12:06:36;4.70;;;1.80;;
2934;SDS011;2462;51.456;7.248;2022-11-04T12:09:17;8.30;;;1.73;;
2934;SDS011;2462;51.456;7.248;2022-11-04T12:12:18;7.28;;;2.22;;
2934;SDS011;2462;51.456;7.248;2022-11-04T12:20:51;7.32;;;2.30;;
2934;SDS011;2462;51.456;7.248;2022-11-04T12:23:30;7.63;;;2.10;;
2934;SDS011;2462;51.456;7.248;2022-11-04T12:26:40;4.75;;;1.58;;
2934;SDS011;2462;51.456;7.248;2022-11-04T12:37:12;8.37;;;2.07;;
2934;SDS011;2462;51.456;7.248;2022-11-04T12:48:41;5.05;;;1.63;;
2934;SDS011;2462;51.456;7.248;2022-11-04T12:51:30;7.13;;;1.95;;
2934;SDS011;2462;51.456;7.248;2022-11-04T12:57:04;6.60;;;2.30;;
2934;SDS011;2462;51.456;7.248;2022-11-04T13:02:39;4.03;;;1.63;;
2934;SDS011;2462;51.456;7.248;2022-11-04T13:13:48;7.30;;;1.83;;
2934;SDS011;2462;51.456;7.248;2022-11-04T13:16:24;6.13;;;1.75;;
2934;SDS011;2462;51.456;7.248;2022-11-04T13:18:51;4.15;;;1.48;;
2934;SDS011;2462;51.456;7.248;2022-11-04T13:21:19;7.47;;;2.00;;
2934;SDS011;2462;51.456;7.248;2022-11-04T13:24:22;8.55;;;2.22;;
2934;SDS011;2462;51.456;7.248;2022-11-04T13:26:44;11.25;;;1.95;;
2934;SDS011;2462;51.456;7.248;2022-11-04T13:29:14;4.40;;;1.80;;
2934;SDS011;2462;51.456;7.248;2022-11-04T13:37:01;8.20;;;2.30;;
2934;SDS011;2462;51.456;7.248;2022-11-04T13:39:32;7.07;;;1.70;;
2934;SDS011;2462;51.456;7.248;2022-11-04T13:42:18;4.80;;;1.70;;
2934;SDS011;2462;51.456;7.248;2022-11-04T13:45:13;5.20;;;1.70;;
2934;SDS011;2462;51.456;7.248;2022-11-04T13:47:52;7.72;;;1.90;;
2934;SDS011;2462;51.456;7.248;2022-11-04T13:50:30;5.57;;;2.00;;
2934;SDS011;2462;51.456;7.248;2022-11-04T13:53:02;5.97;;;2.00;;
2934;SDS011;2462;51.456;7.248;2022-11-04T13:55:29;4.45;;;1.80;;
2934;SDS011;2462;51.456;7.248;2022-11-04T13:58:02;5.07;;;2.28;;
2934;SDS011;2462;51.456;7.248;2022-11-04T14:00:33;6.38;;;2.10;;
2934;SDS011;2462;51.456;7.248;2022-11-04T14:05:59;7.47;;;2.20;;
2934;SDS011;2462;51.456;7.248;2022-11-04T14:08:26;5.25;;;2.50;;
2934;SDS011;2462;51.456;7.248;2022-11-04T14:18:37;9.50;;;3.72;;
2934;SDS011;2462;51.456;7.248;2022-11-04T14:21:17;9.30;;;4.10;;
2934;SDS011;2462;51.456;7.248;2022-11-04T14:23:46;7.25;;;3.85;;
2934;SDS011;2462;51.456;7.248;2022-11-04T14:26:17;13.00;;;4.03;;
2934;SDS011;2462;51.456;7.248;2022-11-04T14:28:46;6.90;;;3.80;;
2934;SDS011;2462;51.456;7.248;2022-11-04T14:31:38;9.18;;;3.47;;
2934;SDS011;2462;51.456;7.248;2022-11-04T14:34:07;6.82;;;3.50;;
2934;SDS011;2462;51.456;7.248;2022-11-04T14:36:47;6.73;;;3.40;;
2934;SDS011;2462;51.456;7.248;2022-11-04T14:39:24;8.02;;;3.33;;
2934;SDS011;2462;51.456;7.248;2022-11-04T14:41:59;7.63;;;3.53;;
2934;SDS011;2462;51.456;7.248;2022-11-04T14:44:30;7.72;;;3.30;;
2934;SDS011;2462;51.456;7.248;2022-11-04T14:49:46;5.45;;;3.25;;
2934;SDS011;2462;51.456;7.248;2022-11-04T14:52:25;8.97;;;3.63;;
2934;SDS011;2462;51.456;7.248;2022-11-04T14:57:39;5.88;;;4.03;;
2934;SDS011;2462;51.456;7.248;2022-11-04T15:00:16;7.82;;;3.80;;
2934;SDS011;2462;51.456;7.248;2022-11-04T15:02:56;7.57;;;4.30;;
2934;SDS011;2462;51.456;7.248;2022-11-04T15:05:28;9.05;;;5.25;;
2934;SDS011;2462;51.456;7.248;2022-11-04T15:07:57;8.77;;;4.15;;
2934;SDS011;2462;51.456;7.248;2022-11-04T15:10:24;9.57;;;4.65;;
2934;SDS011;2462;51.456;7.248;2022-11-04T15:12:51;8.98;;;4.50;;
2934;SDS011;2462;51.456;7.248;2022-11-04T15:18:03;7.68;;;5.22;;
2934;SDS011;2462;51.456;7.248;2022-11-04T15:20:31;11.70;;;6.22;;
2934;SDS011;2462;51.456;7.248;2022-11-04T15:23:00;14.50;;;7.20;;
2934;SDS011;2462;51.456;7.248;2022-11-04T15:25:27;11.20;;;8.10;;
2934;SDS011;2462;51.456;7.248;2022-11-04T15:27:54;15.13;;;10.40;;
2934;SDS011;2462;51.456;7.248;2022-11-04T15:30:25;17.67;;;11.93;;
2934;SDS011;2462;51.456;7.248;2022-11-04T15:33:02;16.52;;;12.10;;
2934;SDS011;2462;51.456;7.248;2022-11-04T15:35:28;15.93;;;11.50;;
2934;SDS011;2462;51.456;7.248;2022-11-04T15:37:55;19.95;;;12.00;;
2934;SDS011;2462;51.456;7.248;2022-11-04T15:40:24;17.55;;;12.02;;
2934;SDS011;2462;51.456;7.248;2022-11-04T15:42:51;18.55;;;12.30;;
2934;SDS011;2462;51.456;7.248;2022-11-04T15:48:19;24.67;;;13.82;;
2934;SDS011;2462;51.456;7.248;2022-11-04T15:56:17;17.50;;;11.10;;
2934;SDS011;2462;51.456;7.248;2022-11-04T15:58:45;16.00;;;10.63;;
2934;SDS011;2462;51.456;7.248;2022-11-04T16:01:12;15.75;;;9.65;;
2934;SDS011;2462;51.456;7.248;2022-11-04T16:03:40;16.40;;;9.55;;
2934;SDS011;2462;51.456;7.248;2022-11-04T16:06:12;13.30;;;8.80;;
2934;SDS011;2462;51.456;7.248;2022-11-04T16:08:37;12.65;;;8.40;;
2934;SDS011;2462;51.456;7.248;2022-11-04T16:11:08;13.38;;;8.10;;
2934;SDS011;2462;51.456;7.248;2022-11-04T16:13:34;14.10;;;8.18;;
2934;SDS011;2462;51.456;7.248;2022-11-04T16:21:01;14.97;;;8.60;;
2934;SDS011;2462;51.456;7.248;2022-11-04T16:23:32;16.65;;;7.60;;
2934;SDS011;2462;51.456;7.248;2022-11-04T16:26:08;13.23;;;7.97;;
2934;SDS011;2462;51.456;7.248;2022-11-04T16:28:34;11.20;;;7.70;;
2934;SDS011;2462;51.456;7.248;2022-11-04T16:31:44;12.60;;;7.90;;
2934;SDS011;2462;51.456;7.248;2022-11-04T16:33:55;15.18;;;7.90;;
2934;SDS011;2462;51.456;7.248;2022-11-04T16:36:21;15.25;;;8.60;;
2934;SDS011;2462;51.456;7.248;2022-11-04T16:41:19;11.82;;;7.65;;
2934;SDS011;2462;51.456;7.248;2022-11-04T16:43:46;11.60;;;7.28;;
2934;SDS011;2462;51.456;7.248;2022-11-04T16:46:12;16.03;;;7.40;;
2934;SDS011;2462;51.456;7.248;2022-11-04T16:48:38;11.97;;;7.10;;
2934;SDS011;2462;51.456;7.248;2022-11-04T16:51:04;11.53;;;6.90;;
2934;SDS011;2462;51.456;7.248;2022-11-04T16:53:29;13.03;;;7.00;;
2934;SDS011;2462;51.456;7.248;2022-11-04T16:55:55;13.37;;;6.60;;
2934;SDS011;2462;51.456;7.248;2022-11-04T16:58:21;10.00;;;6.30;;
2934;SDS011;2462;51.456;7.248;2022-11-04T17:00:47;14.73;;;6.93;;
2934;SDS011;2462;51.456;7.248;2022-11-04T17:03:13;9.80;;;5.73;;
2934;SDS011;2462;51.456;7.248;2022-11-04T17:05:45;10.50;;;5.80;;
2934;SDS011;2462;51.456;7.248;2022-11-04T17:08:11;9.73;;;5.10;;
2934;SDS011;2462;51.456;7.248;2022-11-04T17:10:37;11.27;;;5.60;;
2934;SDS011;2462;51.456;7.248;2022-11-04T17:13:02;10.25;;;5.25;;
2934;SDS011;2462;51.456;7.248;2022-11-04T17:15:28;9.53;;;6.17;;
2934;SDS011;2462;51.456;7.248;2022-11-04T17:17:53;12.10;;;6.10;;
2934;SDS011;2462;51.456;7.248;2022-11-04T17:20:19;10.90;;;6.17;;
2934;SDS011;2462;51.456;7.248;2022-11-04T17:22:45;8.82;;;5.88;;
2934;SDS011;2462;51.456;7.248;2022-11-04T17:25:18;12.23;;;7.05;;
2934;SDS011;2462;51.456;7.248;2022-11-04T17:27:48;12.93;;;7.78;;
2934;SDS011;2462;51.456;7.248;2022-11-04T17:30:14;11.85;;;6.85;;
2934;SDS011;2462;51.456;7.248;2022-11-04T17:32:41;12.70;;;6.90;;
2934;SDS011;2462;51.456;7.248;2022-11-04T17:35:07;12.63;;;7.45;;
2934;SDS011;2462;51.456;7.248;2022-11-04T17:37:34;10.05;;;6.78;;
2934;SDS011;2462;51.456;7.248;2022-11-04T17:39:59;11.30;;;6.28;;
2934;SDS011;2462;51.456;7.248;2022-11-04T17:42:25;14.88;;;6.75;;
2934;SDS011;2462;51.456;7.248;2022-11-04T17:45:09;9.47;;;6.60;;
2934;SDS011;2462;51.456;7.248;2022-11-04T17:47:35;12.80;;;7.43;;
2934;SDS011;2462;51.456;7.248;2022-11-04T17:50:01;12.50;;;7.38;;
2934;SDS011;2462;51.456;7.248;2022-11-04T17:52:29;11.65;;;7.30;;
2934;SDS011;2462;51.456;7.248;2022-11-04T17:54:55;12.50;;;7.80;;